Time;durP1;ratioP1;P1;durP2;ratioP2;P2;SDS_P1;SDS_P2;PMS_P1;PMS_P2;Temp;Humidity;BMP_temperature;BMP_pressure;BME280_temperature;BME280_humidity;BME280_pressure;Samples;Min_cycle;Max_cycle;Signal;HPM_P1;HPM_P2
2023/05/14 00:00:25;;;;;;;20.20;12.40;;;;;;;9.18;66.82;98979.14;104890;1257;97870;-63
2023/05/14 00:02:53;;;;;;;24.50;16.00;;;;;;;9.11;67.19;98980.24;104857;1263;96568;-63
2023/05/14 00:05:20;;;;;;;21.40;13.10;;;;;;;9.01;67.50;98975.85;104971;1263;96639;-63
2023/05/14 00:07:47;;;;;;;18.20;13.30;;;;;;;8.95;67.90;98974.20;104846;1271;96508;-62
2023/05/14 00:10:14;;;;;;;16.60;10.60;;;;;;;8.85;68.32;98971.65;104656;1264;108569;-62
2023/05/14 00:12:41;;;;;;;11.90;7.90;;;;;;;8.75;68.48;98967.36;104876;1261;96657;-64
2023/05/14 00:15:08;;;;;;;14.20;8.40;;;;;;;8.65;68.99;98962.40;104594;1263;97455;-63
2023/05/14 00:17:36;;;;;;;14.10;8.60;;;;;;;8.53;68.73;98965.91;104877;1263;96578;-64
2023/05/14 00:20:06;;;;;;;15.50;8.70;;;;;;;8.49;68.89;98968.30;104790;1263;96537;-64
2023/05/14 00:22:33;;;;;;;11.70;8.10;;;;;;;8.50;69.04;98972.11;104911;1258;108638;-64
2023/05/14 00:25:01;;;;;;;13.80;9.00;;;;;;;8.52;68.71;98969.75;104777;1262;96571;-64
2023/05/14 00:27:28;;;;;;;12.90;8.40;;;;;;;8.53;69.41;98964.16;104883;1263;97759;-64
2023/05/14 00:29:56;;;;;;;16.20;7.80;;;;;;;8.51;69.45;98962.44;104922;1258;111029;-63
2023/05/14 00:32:23;;;;;;;17.90;8.60;;;;;;;8.52;69.64;98965.48;104576;1279;96656;-63
2023/05/14 00:34:51;;;;;;;11.60;8.30;;;;;;;8.57;69.19;98966.77;104636;1264;107377;-63
2023/05/14 00:37:17;;;;;;;13.90;8.80;;;;;;;8.61;69.38;98965.34;104866;1263;96581;-63
2023/05/14 00:39:45;;;;;;;13.50;8.80;;;;;;;8.60;70.15;98961.98;104825;1260;97850;-64
2023/05/14 00:42:12;;;;;;;15.20;9.00;;;;;;;8.57;69.80;98963.48;104903;1272;96587;-64
2023/05/14 00:44:39;;;;;;;13.80;9.00;;;;;;;8.58;69.55;98967.41;104911;1258;96532;-63
2023/05/14 00:47:07;;;;;;;14.50;8.90;;;;;;;8.59;69.72;98970.34;104944;1260;96692;-63
2023/05/14 00:49:34;;;;;;;14.70;9.30;;;;;;;8.57;69.84;98973.42;104872;1256;97483;-62
2023/05/14 00:52:02;;;;;;;13.50;9.30;;;;;;;8.49;70.39;98969.07;104922;1261;96569;-63
2023/05/14 00:54:30;;;;;;;14.60;9.10;;;;;;;8.41;70.86;98975.66;104983;1273;96750;-63
2023/05/14 00:56:58;;;;;;;14.20;8.80;;;;;;;8.33;71.21;98971.27;104841;1261;97454;-63
2023/05/14 00:59:25;;;;;;;11.60;8.20;;;;;;;8.24;71.33;98975.38;104623;1266;108243;-64
2023/05/14 01:01:52;;;;;;;13.10;8.70;;;;;;;8.21;71.15;98976.88;104946;1261;96569;-63
2023/05/14 01:04:19;;;;;;;15.50;9.60;;;;;;;8.20;71.15;98977.70;104981;1279;96569;-63
2023/05/14 01:07:06;;;;;;;12.70;8.60;;;;;;;8.18;71.43;98976.75;104936;1260;96552;-64
2023/05/14 01:09:43;;;;;;;14.20;8.90;;;;;;;8.10;71.80;98979.73;105005;1260;99286;-62
2023/05/14 01:12:18;;;;;;;12.30;8.40;;;;;;;8.06;71.48;98978.24;104961;1260;108495;-63
2023/05/14 01:14:55;;;;;;;12.70;9.40;;;;;;;8.04;72.11;98978.30;104795;1260;96675;-64
2023/05/14 01:17:27;;;;;;;13.90;9.40;;;;;;;8.02;71.99;98975.31;104876;1257;96823;-63
2023/05/14 01:19:55;;;;;;;16.70;9.50;;;;;;;8.02;72.22;98975.91;104886;1260;110493;-62
2023/05/14 01:22:22;;;;;;;16.50;8.90;;;;;;;8.05;72.31;98973.05;105021;1269;99426;-63
2023/05/14 01:24:49;;;;;;;15.60;8.90;;;;;;;8.06;72.79;98970.75;104733;1257;97874;-63
2023/05/14 01:27:45;;;;;;;15.30;9.40;;;;;;;8.06;72.91;98970.59;104858;1279;96573;-64
2023/05/14 01:30:18;;;;;;;14.70;9.20;;;;;;;8.07;73.40;98966.55;104886;1260;97012;-63
2023/05/14 01:32:52;;;;;;;15.30;9.50;;;;;;;8.10;72.75;98967.28;104842;1257;110503;-62
2023/05/14 01:35:24;;;;;;;14.70;8.90;;;;;;;8.16;72.66;98970.05;104666;1263;98774;-63
2023/05/14 01:37:54;;;;;;;13.40;8.90;;;;;;;8.19;72.83;98971.55;104954;1260;108225;-63
2023/05/14 01:40:22;;;;;;;16.30;10.40;;;;;;;8.18;73.24;98969.91;104811;1260;97848;-63
2023/05/14 01:42:51;;;;;;;14.10;8.80;;;;;;;8.12;73.35;98967.68;104928;1259;97225;-63
2023/05/14 01:45:23;;;;;;;14.40;8.50;;;;;;;8.08;73.60;98969.37;104868;1260;110336;-63
2023/05/14 01:47:50;;;;;;;16.00;10.00;;;;;;;8.05;73.80;98963.93;104909;1263;98220;-65
2023/05/14 01:50:17;;;;;;;17.70;10.70;;;;;;;8.02;73.65;98962.66;104892;1260;108661;-64
2023/05/14 01:52:45;;;;;;;17.60;10.40;;;;;;;7.97;73.88;98966.59;104663;1260;97244;-63
2023/05/14 01:55:13;;;;;;;16.10;10.40;;;;;;;7.92;74.12;98966.04;104839;1257;96517;-65
2023/05/14 01:57:40;;;;;;;16.50;10.70;;;;;;;7.91;74.02;98963.20;104963;1257;110847;-63
2023/05/14 02:00:08;;;;;;;17.10;11.90;;;;;;;7.89;74.45;98962.23;104940;1270;97642;-63
2023/05/14 02:02:35;;;;;;;16.80;11.10;;;;;;;7.88;74.46;98962.38;104958;1260;108518;-65
2023/05/14 02:05:02;;;;;;;19.00;11.70;;;;;;;7.88;74.59;98958.98;104957;1260;97831;-63
2023/05/14 02:07:32;;;;;;;20.60;11.60;;;;;;;7.89;74.58;98961.15;104950;1260;97365;-63
2023/05/14 02:09:59;;;;;;;18.20;11.10;;;;;;;7.92;74.88;98959.27;104852;1260;96551;-64
2023/05/14 02:12:26;;;;;;;18.90;11.50;;;;;;;7.92;75.19;98960.36;104994;1260;96548;-65
2023/05/14 02:14:53;;;;;;;18.50;11.20;;;;;;;7.95;75.18;98953.20;104817;1260;96632;-64
2023/05/14 02:17:20;;;;;;;17.10;10.40;;;;;;;7.97;75.40;98951.16;104911;1260;96565;-64
2023/05/14 02:19:47;;;;;;;16.80;11.10;;;;;;;7.98;75.67;98944.52;104793;1260;97937;-64
2023/05/14 02:22:14;;;;;;;22.70;11.90;;;;;;;7.99;75.55;98943.80;105064;1257;96546;-65
2023/05/14 02:24:41;;;;;;;20.10;12.10;;;;;;;7.98;75.79;98939.73;104980;1260;96632;-64
2023/05/14 02:27:08;;;;;;;21.10;12.10;;;;;;;7.98;75.63;98936.89;104714;1266;96619;-65
2023/05/14 02:29:35;;;;;;;21.30;12.90;;;;;;;7.98;75.28;98932.58;104987;1260;96549;-63
2023/05/14 02:32:03;;;;;;;17.60;10.50;;;;;;;7.95;75.79;98931.41;104918;1260;96622;-64
2023/05/14 02:34:29;;;;;;;19.70;12.10;;;;;;;7.85;76.74;98931.29;104972;1260;96571;-64
2023/05/14 02:36:56;;;;;;;19.80;11.80;;;;;;;7.75;76.61;98928.16;104774;1260;96558;-68
2023/05/14 02:39:23;;;;;;;16.30;10.80;;;;;;;7.69;76.43;98923.33;104838;1260;98313;-64
2023/05/14 02:41:50;;;;;;;19.70;13.30;;;;;;;7.63;76.36;98922.71;104945;1272;96536;-67
2023/05/14 02:44:17;;;;;;;17.70;12.30;;;;;;;7.59;76.81;98915.34;105044;1257;97093;-64
2023/05/14 02:46:44;;;;;;;18.00;11.80;;;;;;;7.52;77.25;98912.51;104753;1267;108590;-64
2023/05/14 02:49:12;;;;;;;18.50;12.80;;;;;;;7.47;77.00;98908.63;104977;1273;96650;-64
2023/05/14 02:51:39;;;;;;;21.00;11.00;;;;;;;7.44;77.35;98905.23;104876;1259;96558;-64
2023/05/14 02:54:06;;;;;;;20.20;12.00;;;;;;;7.41;77.32;98902.30;104893;1271;96573;-64
2023/05/14 02:56:33;;;;;;;18.70;11.40;;;;;;;7.34;77.72;98899.36;104705;1263;96525;-64
2023/05/14 02:59:00;;;;;;;19.00;12.00;;;;;;;7.30;77.78;98900.54;104858;1260;96568;-64
2023/05/14 03:01:27;;;;;;;15.90;11.30;;;;;;;7.33;77.79;98901.29;104891;1260;96639;-63
2023/05/14 03:03:55;;;;;;;20.10;12.00;;;;;;;7.40;77.22;98903.34;104758;1257;97404;-64
2023/05/14 03:06:22;;;;;;;19.30;12.20;;;;;;;7.46;76.89;98907.30;105038;1260;96622;-64
2023/05/14 03:08:49;;;;;;;15.90;10.50;;;;;;;7.49;77.14;98912.17;104904;1264;96605;-64
2023/05/14 03:11:16;;;;;;;18.90;11.50;;;;;;;7.41;77.66;98911.64;104767;1260;97454;-64
2023/05/14 03:13:43;;;;;;;21.10;12.30;;;;;;;7.33;77.64;98909.90;104965;1260;96613;-63
2023/05/14 03:16:10;;;;;;;17.00;10.20;;;;;;;7.30;78.17;98910.24;104863;1259;110870;-64
2023/05/14 03:18:37;;;;;;;19.90;11.40;;;;;;;7.27;78.72;98907.92;104752;1260;96615;-63
2023/05/14 03:21:04;;;;;;;18.50;11.60;;;;;;;7.23;78.61;98909.16;104893;1267;97336;-64
2023/05/14 03:23:33;;;;;;;17.90;10.80;;;;;;;7.24;78.54;98909.10;104901;1269;97865;-64
2023/05/14 03:26:01;;;;;;;19.30;11.40;;;;;;;7.21;79.98;98905.48;104859;1260;97706;-63
2023/05/14 03:28:28;;;;;;;15.80;10.20;;;;;;;7.12;80.56;98903.31;104819;1260;97481;-63
2023/05/14 03:30:55;;;;;;;15.20;8.70;;;;;;;7.08;80.38;98902.91;104930;1260;97448;-64
2023/05/14 03:33:22;;;;;;;17.90;9.20;;;;;;;7.07;79.85;98903.30;104854;1260;97999;-64
2023/05/14 03:35:50;;;;;;;16.50;10.40;;;;;;;7.05;79.64;98903.35;104845;1260;96545;-64
2023/05/14 03:38:17;;;;;;;18.20;11.40;;;;;;;7.07;79.64;98906.57;104926;1260;96558;-64
2023/05/14 03:40:44;;;;;;;21.00;10.70;;;;;;;7.10;79.49;98906.38;104858;1260;97389;-64
2023/05/14 03:43:11;;;;;;;19.50;10.40;;;;;;;7.08;80.06;98904.60;104896;1257;96639;-64
2023/05/14 03:45:38;;;;;;;10.60;7.40;;;;;;;6.98;81.05;98900.30;104960;1259;96625;-63
2023/05/14 03:48:06;;;;;;;15.80;10.00;;;;;;;6.91;81.83;98894.80;104943;1259;97297;-64
2023/05/14 03:50:33;;;;;;;16.50;10.30;;;;;;;6.91;81.42;98892.08;104945;1271;96570;-64
2023/05/14 03:53:00;;;;;;;19.10;11.30;;;;;;;6.94;80.82;98896.30;104800;1260;97188;-64
2023/05/14 03:55:27;;;;;;;18.40;11.70;;;;;;;6.98;80.66;98892.02;104849;1271;96550;-64
2023/05/14 03:57:54;;;;;;;15.60;10.40;;;;;;;6.99;80.89;98890.32;104709;1260;97343;-64
2023/05/14 04:00:21;;;;;;;17.10;11.10;;;;;;;7.00;80.59;98894.57;104720;1279;96918;-64
2023/05/14 04:02:48;;;;;;;21.40;11.30;;;;;;;7.01;81.24;98893.59;104522;1265;110622;-65
2023/05/14 04:05:16;;;;;;;16.20;10.20;;;;;;;7.05;81.07;98893.22;104613;1266;99027;-64
2023/05/14 04:07:44;;;;;;;18.40;9.90;;;;;;;7.11;80.92;98893.72;104916;1260;96625;-64
2023/05/14 04:10:12;;;;;;;14.20;9.40;;;;;;;7.18;80.70;98893.29;104902;1269;97559;-64
2023/05/14 04:12:40;;;;;;;12.60;8.80;;;;;;;7.26;80.52;98895.83;104630;1257;96646;-65
2023/05/14 04:15:07;;;;;;;16.70;10.20;;;;;;;7.32;80.54;98895.52;104626;1263;96631;-65
2023/05/14 04:17:34;;;;;;;17.50;10.30;;;;;;;7.38;80.34;98901.02;104976;1260;96584;-65
2023/05/14 04:20:02;;;;;;;21.30;11.20;;;;;;;7.47;80.71;98897.17;104979;1260;96654;-65
2023/05/14 04:22:29;;;;;;;15.60;10.00;;;;;;;7.54;80.34;98899.89;104702;1260;97980;-65
2023/05/14 04:24:55;;;;;;;17.90;10.90;;;;;;;7.65;79.71;98899.30;104892;1260;96629;-65
2023/05/14 04:27:22;;;;;;;16.40;10.10;;;;;;;7.81;79.04;98902.25;104970;1260;96542;-64
2023/05/14 04:29:50;;;;;;;17.40;10.30;;;;;;;7.94;79.13;98908.55;104678;1260;96542;-64
2023/05/14 04:32:17;;;;;;;21.60;10.10;;;;;;;8.08;78.78;98915.92;104839;1260;96634;-64
2023/05/14 04:34:45;;;;;;;14.10;9.40;;;;;;;8.22;78.44;98909.88;104966;1257;96545;-65
2023/05/14 04:37:12;;;;;;;16.90;10.30;;;;;;;8.34;77.92;98910.21;104935;1260;96549;-64
2023/05/14 04:39:39;;;;;;;15.40;9.40;;;;;;;8.40;77.59;98907.79;104929;1256;96520;-65
2023/05/14 04:42:07;;;;;;;16.60;10.90;;;;;;;8.40;77.59;98907.34;104788;1260;96543;-65
2023/05/14 04:44:35;;;;;;;13.90;9.60;;;;;;;8.47;77.42;98908.95;104949;1260;96603;-65
2023/05/14 04:47:03;;;;;;;15.00;9.30;;;;;;;8.48;77.56;98905.88;104895;1258;97919;-66
2023/05/14 04:49:30;;;;;;;13.80;8.40;;;;;;;8.43;77.56;98905.98;104994;1259;96623;-63
2023/05/14 04:51:58;;;;;;;15.40;10.00;;;;;;;8.39;77.80;98904.95;104777;1257;96560;-64
2023/05/14 04:54:25;;;;;;;14.20;9.10;;;;;;;8.50;77.42;98907.98;104973;1260;96592;-64
2023/05/14 04:56:53;;;;;;;15.30;8.70;;;;;;;8.61;77.33;98908.95;104921;1262;97747;-64
2023/05/14 04:59:21;;;;;;;13.00;8.30;;;;;;;8.76;76.99;98909.47;104550;1266;96606;-64
2023/05/14 05:01:48;;;;;;;13.70;9.00;;;;;;;8.91;76.80;98911.05;104880;1259;97063;-64
2023/05/14 05:04:15;;;;;;;14.50;9.90;;;;;;;9.02;76.69;98909.45;104822;1267;96566;-65
2023/05/14 05:06:42;;;;;;;18.00;10.90;;;;;;;9.17;76.41;98906.77;105035;1260;97057;-65
2023/05/14 05:09:09;;;;;;;15.80;10.30;;;;;;;9.30;75.91;98903.89;104900;1271;96539;-64
2023/05/14 05:11:37;;;;;;;14.50;9.60;;;;;;;9.37;75.73;98902.67;104844;1260;96568;-65
2023/05/14 05:14:04;;;;;;;14.40;10.10;;;;;;;9.49;75.53;98900.45;104915;1260;96576;-65
2023/05/14 05:16:31;;;;;;;12.30;8.80;;;;;;;9.63;75.34;98904.25;104688;1260;96536;-64
2023/05/14 05:18:58;;;;;;;13.00;8.30;;;;;;;9.75;75.18;98900.63;104815;1263;96539;-64
2023/05/14 05:21:25;;;;;;;13.80;8.40;;;;;;;9.93;74.94;98899.05;104882;1260;97853;-66
2023/05/14 05:23:52;;;;;;;12.60;9.00;;;;;;;10.08;74.17;98900.20;104805;1260;97039;-66
2023/05/14 05:26:21;;;;;;;12.30;8.50;;;;;;;10.22;74.04;98902.02;105016;1257;97505;-64
2023/05/14 05:28:48;;;;;;;10.80;7.50;;;;;;;10.33;73.30;98901.38;104643;1263;98900;-66
2023/05/14 05:31:15;;;;;;;13.00;8.50;;;;;;;10.40;72.81;98902.28;104927;1257;96760;-65
2023/05/14 05:33:45;;;;;;;12.80;9.00;;;;;;;10.55;73.29;98901.05;104552;1264;97848;-65
2023/05/14 05:36:12;;;;;;;11.50;8.40;;;;;;;10.82;73.29;98907.25;104969;1260;96598;-66
2023/05/14 05:38:39;;;;;;;12.60;8.60;;;;;;;11.11;72.69;98907.31;105230;1267;96624;-66
2023/05/14 05:41:06;;;;;;;11.90;8.70;;;;;;;11.37;71.95;98909.10;104991;1260;96542;-65
2023/05/14 05:43:33;;;;;;;10.80;7.50;;;;;;;11.55;70.66;98907.91;105013;1260;96570;-65
2023/05/14 05:46:00;;;;;;;11.90;8.30;;;;;;;11.66;69.59;98910.56;105001;1260;97945;-65
2023/05/14 05:48:28;;;;;;;12.30;8.50;;;;;;;11.72;69.13;98905.73;104925;1260;97921;-64
2023/05/14 05:50:54;;;;;;;11.60;8.20;;;;;;;11.73;68.53;98902.54;104942;1258;96551;-65
2023/05/14 05:53:21;;;;;;;12.20;8.00;;;;;;;11.74;68.50;98895.75;104938;1260;98232;-65
2023/05/14 05:55:50;;;;;;;14.00;8.10;;;;;;;11.87;68.66;98892.39;104863;1260;96574;-65
2023/05/14 05:58:18;;;;;;;9.40;6.70;;;;;;;12.07;68.90;98889.20;104880;1267;96466;-65
2023/05/14 06:00:46;;;;;;;10.70;8.50;;;;;;;12.22;68.44;98887.27;104861;1264;110882;-65
2023/05/14 06:03:13;;;;;;;11.80;8.30;;;;;;;12.37;68.48;98889.86;105028;1260;99192;-65
2023/05/14 06:05:40;;;;;;;14.00;10.30;;;;;;;12.56;68.04;98890.27;104897;1265;108596;-65
2023/05/14 06:08:08;;;;;;;11.30;9.10;;;;;;;12.65;67.91;98884.56;104772;1260;96636;-65
2023/05/14 06:10:36;;;;;;;12.30;9.20;;;;;;;12.86;67.46;98879.03;104946;1260;96541;-65
2023/05/14 06:13:03;;;;;;;11.90;9.30;;;;;;;12.99;67.01;98879.71;104986;1260;110869;-64
2023/05/14 06:15:30;;;;;;;12.80;9.20;;;;;;;13.04;66.56;98877.34;104785;1269;96555;-64
2023/05/14 06:17:57;;;;;;;13.20;9.50;;;;;;;13.12;66.53;98879.08;104904;1260;97897;-65
2023/05/14 06:20:24;;;;;;;12.40;9.00;;;;;;;13.20;66.16;98873.13;104947;1259;97013;-65
2023/05/14 06:22:51;;;;;;;12.80;9.00;;;;;;;13.26;66.64;98870.10;104869;1271;97743;-64
2023/05/14 06:25:18;;;;;;;10.30;8.30;;;;;;;13.44;66.34;98866.69;104870;1264;96551;-65
2023/05/14 06:27:45;;;;;;;12.40;8.00;;;;;;;13.54;65.46;98868.08;104932;1269;96549;-65
2023/05/14 06:30:13;;;;;;;12.60;8.80;;;;;;;13.62;65.71;98870.45;104921;1269;96608;-65
2023/05/14 06:32:40;;;;;;;12.80;9.30;;;;;;;13.68;64.65;98870.93;104612;1260;96698;-66
2023/05/14 06:35:07;;;;;;;10.30;8.50;;;;;;;13.65;64.93;98875.83;105151;1267;96545;-66
2023/05/14 06:37:34;;;;;;;12.10;8.40;;;;;;;13.72;64.79;98876.36;104754;1260;180914;-65
2023/05/14 06:40:02;;;;;;;11.00;8.70;;;;;;;13.84;65.15;98879.00;104626;1271;97941;-65
2023/05/14 06:42:29;;;;;;;9.70;7.80;;;;;;;14.12;64.57;98882.23;104988;1259;96612;-67
2023/05/14 06:44:56;;;;;;;9.60;7.40;;;;;;;14.22;64.12;98872.59;104824;1260;96545;-66
2023/05/14 06:47:23;;;;;;;10.90;7.70;;;;;;;14.26;64.17;98874.48;104919;1267;97433;-65
2023/05/14 06:49:50;;;;;;;9.30;6.70;;;;;;;14.41;63.77;98870.89;104776;1260;96599;-66
2023/05/14 06:52:17;;;;;;;12.50;7.70;;;;;;;14.40;63.78;98872.99;104828;1269;96939;-65
2023/05/14 06:54:48;;;;;;;11.30;7.90;;;;;;;14.63;64.26;98874.63;104940;1262;97837;-65
2023/05/14 06:57:27;;;;;;;10.90;8.60;;;;;;;14.86;63.00;98865.20;104945;1260;96549;-67
2023/05/14 06:59:59;;;;;;;11.30;8.50;;;;;;;14.93;62.43;98867.90;104824;1263;110858;-65
2023/05/14 07:02:29;;;;;;;11.20;8.00;;;;;;;15.12;62.99;98870.56;104790;1260;99232;-65
2023/05/14 07:04:56;;;;;;;9.60;7.60;;;;;;;15.39;62.62;98873.92;104931;1260;96549;-68
2023/05/14 07:07:23;;;;;;;9.70;6.80;;;;;;;15.67;61.77;98873.05;104851;1269;96644;-65
2023/05/14 07:09:50;;;;;;;8.20;6.60;;;;;;;15.83;61.80;98873.98;104728;1261;97417;-66
2023/05/14 07:12:17;;;;;;;8.60;6.70;;;;;;;16.10;60.84;98870.85;104970;1260;97842;-65
2023/05/14 07:14:44;;;;;;;9.10;7.10;;;;;;;16.26;59.59;98874.41;104723;1269;96551;-65
2023/05/14 07:17:11;;;;;;;9.90;7.40;;;;;;;16.23;59.91;98875.50;104720;1260;96539;-66
2023/05/14 07:19:38;;;;;;;8.20;6.60;;;;;;;16.41;59.87;98878.04;104793;1260;96609;-66
2023/05/14 07:22:05;;;;;;;8.00;6.00;;;;;;;16.73;60.36;98877.48;104838;1260;96508;-66
2023/05/14 07:24:32;;;;;;;7.00;5.30;;;;;;;17.02;58.50;98878.55;104992;1260;99136;-66
2023/05/14 07:27:00;;;;;;;9.40;5.80;;;;;;;17.18;57.71;98879.01;104922;1260;97203;-65
2023/05/14 07:29:28;;;;;;;10.10;5.40;;;;;;;17.40;56.62;98886.88;104853;1274;96532;-66
2023/05/14 07:31:56;;;;;;;6.00;4.90;;;;;;;17.46;56.23;98882.14;104954;1260;97920;-66
2023/05/14 07:34:23;;;;;;;5.90;4.90;;;;;;;17.70;56.09;98877.30;105016;1260;97851;-65
2023/05/14 07:36:50;;;;;;;5.80;5.10;;;;;;;17.97;55.52;98859.02;104842;1260;96622;-65
2023/05/14 07:39:17;;;;;;;7.30;5.40;;;;;;;18.22;55.42;98856.63;104892;1270;96521;-65
2023/05/14 07:41:43;;;;;;;7.10;6.30;;;;;;;18.42;54.08;98858.02;104977;1268;96750;-65
2023/05/14 07:44:10;;;;;;;8.90;6.20;;;;;;;18.52;54.14;98858.15;104755;1263;96569;-66
2023/05/14 07:46:37;;;;;;;5.60;4.90;;;;;;;18.72;53.02;98845.73;104858;1269;97874;-67
2023/05/14 07:49:04;;;;;;;6.00;4.80;;;;;;;18.86;52.13;98841.49;104888;1260;108516;-66
2023/05/14 07:51:32;;;;;;;6.40;5.20;;;;;;;19.06;51.83;98842.21;104776;1260;96549;-66
2023/05/14 07:53:59;;;;;;;8.20;5.20;;;;;;;19.32;51.53;98838.02;104940;1259;96530;-66
2023/05/14 07:56:30;;;;;;;5.80;5.10;;;;;;;19.53;50.96;98832.20;104776;1258;98191;-66
2023/05/14 07:58:58;;;;;;;6.00;5.20;;;;;;;19.67;50.51;98831.02;104830;1260;98847;-66
2023/05/14 08:01:25;;;;;;;5.80;4.50;;;;;;;19.89;50.53;98829.86;104961;1269;97173;-66
2023/05/14 08:03:52;;;;;;;7.40;4.50;;;;;;;20.09;49.07;98823.98;104879;1261;96620;-67
2023/05/14 08:06:21;;;;;;;6.10;4.80;;;;;;;20.20;48.40;98821.05;104820;1269;96584;-68
2023/05/14 08:08:48;;;;;;;5.00;4.50;;;;;;;20.35;48.24;98815.38;104917;1259;110999;-65
2023/05/14 08:11:15;;;;;;;6.30;4.40;;;;;;;20.66;48.51;98808.86;104854;1260;96642;-66
2023/05/14 08:13:42;;;;;;;5.90;4.20;;;;;;;21.06;47.57;98805.20;105031;1260;96605;-66
2023/05/14 08:16:09;;;;;;;5.70;4.20;;;;;;;21.35;48.11;98802.06;104801;1260;96577;-66
2023/05/14 08:18:36;;;;;;;6.70;4.60;;;;;;;21.94;47.33;98798.18;104846;1260;96571;-66
2023/05/14 08:21:04;;;;;;;5.60;4.20;;;;;;;22.11;44.71;98791.11;104776;1270;96510;-66
2023/05/14 08:23:31;;;;;;;4.90;4.50;;;;;;;21.76;44.39;98793.98;104716;1269;97061;-67
2023/05/14 08:25:58;;;;;;;6.50;4.80;;;;;;;21.80;44.25;98795.45;105183;1261;96606;-65
2023/05/14 08:28:25;;;;;;;5.40;4.60;;;;;;;21.86;43.57;98796.93;104943;1259;97858;-67
2023/05/14 08:30:52;;;;;;;6.10;5.00;;;;;;;21.86;43.94;98792.31;104876;1260;96567;-67
2023/05/14 08:33:20;;;;;;;5.30;4.40;;;;;;;22.18;42.85;98786.14;104925;1256;97884;-67
2023/05/14 08:35:52;;;;;;;5.50;4.70;;;;;;;22.06;42.56;98781.36;104793;1270;96662;-67
2023/05/14 08:38:19;;;;;;;5.00;4.50;;;;;;;22.07;43.04;98775.16;104854;1271;108287;-67
2023/05/14 08:40:59;;;;;;;5.40;4.90;;;;;;;22.18;42.65;98773.95;104974;1264;96532;-67
2023/05/14 08:43:34;;;;;;;5.60;4.70;;;;;;;22.15;42.95;98766.50;104727;1263;98058;-67
2023/05/14 08:46:05;;;;;;;5.10;4.60;;;;;;;22.26;42.45;98766.96;104929;1263;109503;-67
2023/05/14 08:48:33;;;;;;;6.30;4.70;;;;;;;22.37;41.20;98765.27;104607;1266;98198;-67
2023/05/14 08:51:01;;;;;;;6.90;4.50;;;;;;;22.31;41.02;98768.66;104740;1260;107636;-66
2023/05/14 08:53:30;;;;;;;5.50;4.20;;;;;;;22.41;41.60;98768.55;104695;1266;97957;-66
2023/05/14 08:55:59;;;;;;;4.70;4.20;;;;;;;22.77;41.09;98760.73;104810;1268;96478;-65
2023/05/14 08:58:27;;;;;;;4.30;3.90;;;;;;;22.94;40.64;98755.19;104613;1279;108972;-65
2023/05/14 09:00:55;;;;;;;4.90;3.40;;;;;;;22.97;38.61;98750.96;104909;1270;99014;-66
2023/05/14 09:03:23;;;;;;;4.10;3.30;;;;;;;22.83;39.20;98748.30;104696;1276;107546;-64
2023/05/14 09:05:51;;;;;;;5.60;5.10;;;;;;;23.10;38.75;98745.72;104672;1265;97746;-65
2023/05/14 09:08:18;;;;;;;4.80;3.80;;;;;;;23.37;38.13;98749.42;104965;1259;96597;-65
2023/05/14 09:10:45;;;;;;;5.30;4.50;;;;;;;23.30;38.15;98756.05;104842;1260;110828;-65
2023/05/14 09:13:13;;;;;;;4.90;4.10;;;;;;;23.34;38.02;98757.24;104940;1256;96558;-65
2023/05/14 09:15:40;;;;;;;5.40;3.30;;;;;;;23.34;37.54;98757.33;104515;1263;96639;-65
2023/05/14 09:18:09;;;;;;;4.30;3.50;;;;;;;23.42;36.74;98759.20;104747;1260;96541;-65
2023/05/14 09:20:38;;;;;;;5.90;4.50;;;;;;;23.44;36.19;98763.02;104848;1260;97976;-65
2023/05/14 09:23:05;;;;;;;5.20;3.30;;;;;;;23.46;35.79;98761.52;104504;1279;109815;-65
2023/05/14 09:25:32;;;;;;;4.90;3.10;;;;;;;23.61;36.59;98764.86;104912;1260;96616;-66
2023/05/14 09:28:05;;;;;;;3.60;3.20;;;;;;;23.67;35.73;98770.54;104875;1270;97826;-68
2023/05/14 09:30:33;;;;;;;3.70;3.30;;;;;;;23.66;36.75;98761.10;104963;1260;96609;-66
2023/05/14 09:33:02;;;;;;;3.30;3.00;;;;;;;23.90;36.79;98761.33;104846;1270;96564;-66
2023/05/14 09:35:31;;;;;;;3.60;3.30;;;;;;;23.87;35.70;98759.89;104724;1266;110521;-66
2023/05/14 09:37:58;;;;;;;3.50;3.20;;;;;;;23.66;36.24;98751.27;104692;1266;98109;-65
2023/05/14 09:40:26;;;;;;;4.50;3.30;;;;;;;23.47;36.21;98747.67;104628;1260;96553;-65
2023/05/14 09:42:54;;;;;;;4.10;3.40;;;;;;;22.82;36.96;98746.14;104930;1271;97733;-65
2023/05/14 09:45:21;;;;;;;3.30;3.00;;;;;;;22.93;37.39;98747.36;104649;1272;96597;-69
2023/05/14 09:47:48;;;;;;;4.40;4.00;;;;;;;23.05;37.57;98741.56;104688;1267;97769;-65
2023/05/14 09:50:16;;;;;;;3.80;3.50;;;;;;;23.13;37.54;98740.21;104685;1266;96571;-65
2023/05/14 09:52:42;;;;;;;3.80;3.20;;;;;;;22.96;37.46;98741.38;104825;1270;96532;-66
2023/05/14 09:55:10;;;;;;;5.40;3.70;;;;;;;22.81;37.72;98738.55;104962;1269;96593;-67
2023/05/14 09:57:37;;;;;;;3.50;3.20;;;;;;;22.58;38.39;98728.27;104996;1260;96642;-66
2023/05/14 10:00:05;;;;;;;4.40;4.00;;;;;;;22.84;38.40;98728.58;104995;1269;96555;-65
2023/05/14 10:02:36;;;;;;;5.50;3.40;;;;;;;22.93;38.21;98720.79;104956;1269;96554;-66
2023/05/14 10:05:05;;;;;;;4.70;3.40;;;;;;;22.88;38.12;98717.50;104955;1269;108591;-65
2023/05/14 10:07:40;;;;;;;8.50;3.90;;;;;;;22.64;38.13;98711.05;104994;1269;97741;-66
2023/05/14 10:10:12;;;;;;;4.50;3.40;;;;;;;22.30;38.93;98708.45;104996;1269;97268;-66
2023/05/14 10:12:39;;;;;;;3.80;3.30;;;;;;;22.13;39.07;98708.04;104688;1260;110899;-65
2023/05/14 10:15:16;;;;;;;3.90;3.50;;;;;;;22.07;38.84;98705.79;105029;1260;98211;-65
2023/05/14 10:17:48;;;;;;;5.70;3.40;;;;;;;22.28;39.15;98705.25;104985;1271;108153;-65
2023/05/14 10:20:17;;;;;;;5.40;3.40;;;;;;;22.53;39.28;98698.32;105143;1264;96706;-65
2023/05/14 10:22:45;;;;;;;5.40;3.20;;;;;;;22.57;38.75;98694.18;105038;1260;96530;-65
2023/05/14 10:25:12;;;;;;;4.10;3.70;;;;;;;22.70;38.86;98689.45;104864;1272;108418;-65
2023/05/14 10:27:41;;;;;;;4.30;3.40;;;;;;;22.63;38.26;98687.29;104999;1260;99151;-65
2023/05/14 10:30:11;;;;;;;3.80;3.40;;;;;;;22.59;38.22;98684.16;104910;1269;108370;-65
2023/05/14 10:32:40;;;;;;;4.70;3.50;;;;;;;22.50;38.38;98684.98;104856;1269;96523;-65
2023/05/14 10:35:19;;;;;;;3.60;3.30;;;;;;;22.35;38.34;98678.15;104603;1272;96625;-65
2023/05/14 10:37:50;;;;;;;3.20;2.90;;;;;;;22.21;38.69;98683.30;104905;1260;110908;-65
2023/05/14 10:40:17;;;;;;;;;;;;;;;21.75;38.83;98680.33;104869;1269;99127;-65
2023/05/14 10:42:45;;;;;;;3.70;3.30;;;;;;;21.23;39.77;98686.36;104724;1271;108253;-65
2023/05/14 10:45:14;;;;;;;4.30;3.50;;;;;;;21.20;40.16;98683.61;104969;1261;97231;-70
2023/05/14 10:47:44;;;;;;;4.80;3.40;;;;;;;21.25;40.41;98680.70;104723;1267;96619;-68
2023/05/14 10:50:14;;;;;;;4.50;3.50;;;;;;;21.36;40.57;98683.17;104975;1269;109892;-66
2023/05/14 10:52:45;;;;;;;3.70;3.40;;;;;;;21.50;40.37;98679.54;104976;1269;99182;-66
2023/05/14 10:55:14;;;;;;;5.60;3.20;;;;;;;21.54;39.22;98679.40;104901;1262;108682;-66
2023/05/14 10:57:43;;;;;;;4.40;3.20;;;;;;;21.32;38.64;98677.64;104818;1259;96567;-66
2023/05/14 11:00:11;;;;;;;4.20;3.30;;;;;;;21.02;39.61;98683.70;104952;1260;97397;-66
2023/05/14 11:02:40;;;;;;;3.50;3.20;;;;;;;20.98;40.15;98676.90;105723;1262;110559;-66
2023/05/14 11:05:18;;;;;;;3.50;3.10;;;;;;;21.10;39.82;98677.46;104617;1264;98441;-65
2023/05/14 11:07:47;;;;;;;3.20;2.60;;;;;;;21.20;39.73;98671.83;104719;1260;108887;-66
2023/05/14 11:10:17;;;;;;;5.20;2.90;;;;;;;21.11;39.19;98671.11;104922;1261;96570;-65
2023/05/14 11:12:49;;;;;;;3.10;2.80;;;;;;;21.02;39.77;98671.92;104964;1258;96536;-66
2023/05/14 11:15:22;;;;;;;3.00;2.70;;;;;;;20.92;39.97;98672.23;104767;1261;109789;-65
2023/05/14 11:17:50;;;;;;;3.10;2.80;;;;;;;20.98;39.79;98672.13;104622;1273;98254;-65
2023/05/14 11:20:18;;;;;;;2.90;2.60;;;;;;;21.10;39.28;98664.10;104917;1267;108740;-65
2023/05/14 11:22:47;;;;;;;4.80;2.70;;;;;;;21.16;39.37;98665.59;104807;1260;96651;-65
2023/05/14 11:25:15;;;;;;;2.60;2.40;;;;;;;21.32;38.98;98663.16;104578;1261;98450;-65